sensor_id;sensor_type;location;lat;lon;timestamp;P1;durP1;ratioP1;P2;durP2;ratioP2
49384;SDS011;36795;45.028;38.968;2023-10-08T00:01:58;18.33;;;3.70;;
49384;SDS011;36795;45.028;38.968;2023-10-08T00:04:44;19.42;;;3.95;;
49384;SDS011;36795;45.028;38.968;2023-10-08T00:07:30;17.20;;;4.00;;
49384;SDS011;36795;45.028;38.968;2023-10-08T00:10:16;20.90;;;4.28;;
49384;SDS011;36795;45.028;38.968;2023-10-08T00:13:03;16.17;;;4.37;;
49384;SDS011;36795;45.028;38.968;2023-10-08T00:15:52;17.15;;;3.83;;
49384;SDS011;36795;45.028;38.968;2023-10-08T00:18:39;19.87;;;3.65;;
49384;SDS011;36795;45.028;38.968;2023-10-08T00:21:34;17.23;;;3.50;;
49384;SDS011;36795;45.028;38.968;2023-10-08T00:24:22;15.15;;;3.80;;
49384;SDS011;36795;45.028;38.968;2023-10-08T00:27:12;16.30;;;4.12;;
49384;SDS011;36795;45.028;38.968;2023-10-08T00:30:02;16.10;;;3.50;;
49384;SDS011;36795;45.028;38.968;2023-10-08T00:32:57;15.45;;;3.95;;
49384;SDS011;36795;45.028;38.968;2023-10-08T00:35:43;16.00;;;3.60;;
49384;SDS011;36795;45.028;38.968;2023-10-08T00:38:29;17.10;;;3.87;;
49384;SDS011;36795;45.028;38.968;2023-10-08T00:41:17;17.45;;;3.87;;
49384;SDS011;36795;45.028;38.968;2023-10-08T00:44:13;24.95;;;4.37;;
49384;SDS011;36795;45.028;38.968;2023-10-08T00:47:14;14.05;;;3.33;;
49384;SDS011;36795;45.028;38.968;2023-10-08T00:50:06;18.27;;;4.07;;
49384;SDS011;36795;45.028;38.968;2023-10-08T00:52:53;19.35;;;4.05;;
49384;SDS011;36795;45.028;38.968;2023-10-08T00:55:46;20.37;;;4.35;;
49384;SDS011;36795;45.028;38.968;2023-10-08T00:58:39;17.92;;;4.12;;
49384;SDS011;36795;45.028;38.968;2023-10-08T01:01:32;17.12;;;3.60;;
49384;SDS011;36795;45.028;38.968;2023-10-08T01:04:20;18.67;;;4.20;;
49384;SDS011;36795;45.028;38.968;2023-10-08T01:07:13;18.60;;;3.77;;
49384;SDS011;36795;45.028;38.968;2023-10-08T01:10:04;17.12;;;3.62;;
49384;SDS011;36795;45.028;38.968;2023-10-08T01:12:55;17.92;;;3.42;;
49384;SDS011;36795;45.028;38.968;2023-10-08T01:15:50;18.45;;;3.72;;
49384;SDS011;36795;45.028;38.968;2023-10-08T01:18:37;27.92;;;4.10;;
49384;SDS011;36795;45.028;38.968;2023-10-08T01:21:28;19.05;;;4.35;;
49384;SDS011;36795;45.028;38.968;2023-10-08T01:24:25;20.25;;;4.47;;
49384;SDS011;36795;45.028;38.968;2023-10-08T01:27:12;14.35;;;3.67;;
49384;SDS011;36795;45.028;38.968;2023-10-08T01:30:04;19.92;;;3.70;;
49384;SDS011;36795;45.028;38.968;2023-10-08T01:32:57;14.77;;;3.00;;
49384;SDS011;36795;45.028;38.968;2023-10-08T01:35:43;18.75;;;4.37;;
49384;SDS011;36795;45.028;38.968;2023-10-08T01:38:30;23.80;;;3.97;;
49384;SDS011;36795;45.028;38.968;2023-10-08T01:41:17;19.12;;;4.10;;
49384;SDS011;36795;45.028;38.968;2023-10-08T01:44:04;21.58;;;4.30;;
49384;SDS011;36795;45.028;38.968;2023-10-08T01:46:53;16.05;;;4.12;;
49384;SDS011;36795;45.028;38.968;2023-10-08T01:49:43;20.15;;;4.37;;
49384;SDS011;36795;45.028;38.968;2023-10-08T01:52:31;17.67;;;3.67;;
49384;SDS011;36795;45.028;38.968;2023-10-08T01:55:19;17.83;;;3.85;;
49384;SDS011;36795;45.028;38.968;2023-10-08T01:58:07;18.40;;;3.67;;
49384;SDS011;36795;45.028;38.968;2023-10-08T02:00:54;18.95;;;4.57;;
49384;SDS011;36795;45.028;38.968;2023-10-08T02:03:43;18.77;;;4.45;;
49384;SDS011;36795;45.028;38.968;2023-10-08T02:06:29;24.30;;;4.50;;
49384;SDS011;36795;45.028;38.968;2023-10-08T02:09:16;15.52;;;3.92;;
49384;SDS011;36795;45.028;38.968;2023-10-08T02:12:04;21.12;;;4.57;;
49384;SDS011;36795;45.028;38.968;2023-10-08T02:14:51;17.10;;;4.07;;
49384;SDS011;36795;45.028;38.968;2023-10-08T02:17:37;19.80;;;4.15;;
49384;SDS011;36795;45.028;38.968;2023-10-08T02:20:23;21.87;;;4.47;;
49384;SDS011;36795;45.028;38.968;2023-10-08T02:23:09;18.77;;;4.18;;
49384;SDS011;36795;45.028;38.968;2023-10-08T02:25:58;19.10;;;4.30;;
49384;SDS011;36795;45.028;38.968;2023-10-08T02:28:44;19.65;;;4.22;;
49384;SDS011;36795;45.028;38.968;2023-10-08T02:31:30;19.08;;;4.53;;
49384;SDS011;36795;45.028;38.968;2023-10-08T02:34:16;16.75;;;4.12;;
49384;SDS011;36795;45.028;38.968;2023-10-08T02:37:04;16.98;;;3.87;;
49384;SDS011;36795;45.028;38.968;2023-10-08T02:39:50;17.25;;;4.20;;
49384;SDS011;36795;45.028;38.968;2023-10-08T02:42:36;15.88;;;3.80;;
49384;SDS011;36795;45.028;38.968;2023-10-08T02:45:24;19.37;;;4.32;;
49384;SDS011;36795;45.028;38.968;2023-10-08T02:48:10;19.75;;;4.62;;
49384;SDS011;36795;45.028;38.968;2023-10-08T02:51:00;20.27;;;3.72;;
49384;SDS011;36795;45.028;38.968;2023-10-08T02:53:58;20.30;;;4.43;;
49384;SDS011;36795;45.028;38.968;2023-10-08T02:56:48;15.68;;;4.00;;
49384;SDS011;36795;45.028;38.968;2023-10-08T02:59:43;19.02;;;4.18;;
49384;SDS011;36795;45.028;38.968;2023-10-08T03:02:30;18.27;;;3.90;;
49384;SDS011;36795;45.028;38.968;2023-10-08T03:05:16;21.30;;;4.68;;
49384;SDS011;36795;45.028;38.968;2023-10-08T03:08:04;19.17;;;4.60;;
49384;SDS011;36795;45.028;38.968;2023-10-08T03:10:55;20.45;;;4.62;;
49384;SDS011;36795;45.028;38.968;2023-10-08T03:13:48;21.23;;;5.07;;
49384;SDS011;36795;45.028;38.968;2023-10-08T03:16:37;18.67;;;4.65;;
49384;SDS011;36795;45.028;38.968;2023-10-08T03:19:23;19.27;;;4.45;;
49384;SDS011;36795;45.028;38.968;2023-10-08T03:22:10;21.37;;;5.15;;
49384;SDS011;36795;45.028;38.968;2023-10-08T03:24:57;18.08;;;4.65;;
49384;SDS011;36795;45.028;38.968;2023-10-08T03:27:43;21.87;;;4.95;;
49384;SDS011;36795;45.028;38.968;2023-10-08T03:30:30;21.17;;;4.93;;
49384;SDS011;36795;45.028;38.968;2023-10-08T03:33:18;22.48;;;5.25;;
49384;SDS011;36795;45.028;38.968;2023-10-08T03:36:08;20.33;;;4.68;;
49384;SDS011;36795;45.028;38.968;2023-10-08T03:38:59;21.83;;;4.90;;
49384;SDS011;36795;45.028;38.968;2023-10-08T03:41:56;20.30;;;5.15;;
49384;SDS011;36795;45.028;38.968;2023-10-08T03:47:38;20.73;;;4.28;;
49384;SDS011;36795;45.028;38.968;2023-10-08T03:50:25;22.60;;;5.25;;
49384;SDS011;36795;45.028;38.968;2023-10-08T03:53:18;19.00;;;4.55;;
49384;SDS011;36795;45.028;38.968;2023-10-08T03:56:07;17.45;;;4.32;;
49384;SDS011;36795;45.028;38.968;2023-10-08T03:58:54;21.55;;;4.60;;
49384;SDS011;36795;45.028;38.968;2023-10-08T04:01:41;20.37;;;4.97;;
49384;SDS011;36795;45.028;38.968;2023-10-08T04:04:28;20.88;;;4.80;;
49384;SDS011;36795;45.028;38.968;2023-10-08T04:07:33;16.90;;;4.28;;
49384;SDS011;36795;45.028;38.968;2023-10-08T04:10:32;19.35;;;4.55;;
49384;SDS011;36795;45.028;38.968;2023-10-08T04:13:23;22.33;;;5.55;;
49384;SDS011;36795;45.028;38.968;2023-10-08T04:16:10;17.77;;;4.57;;
49384;SDS011;36795;45.028;38.968;2023-10-08T04:18:56;19.77;;;4.80;;
49384;SDS011;36795;45.028;38.968;2023-10-08T04:21:42;20.00;;;4.80;;
49384;SDS011;36795;45.028;38.968;2023-10-08T04:24:27;16.48;;;4.50;;
49384;SDS011;36795;45.028;38.968;2023-10-08T04:27:14;20.58;;;4.65;;
49384;SDS011;36795;45.028;38.968;2023-10-08T04:30:00;19.37;;;4.50;;
49384;SDS011;36795;45.028;38.968;2023-10-08T04:32:46;21.08;;;4.50;;
49384;SDS011;36795;45.028;38.968;2023-10-08T04:35:33;20.85;;;4.80;;
49384;SDS011;36795;45.028;38.968;2023-10-08T04:38:23;22.42;;;5.20;;
49384;SDS011;36795;45.028;38.968;2023-10-08T04:41:21;17.80;;;4.32;;
49384;SDS011;36795;45.028;38.968;2023-10-08T04:44:13;20.73;;;4.93;;
49384;SDS011;36795;45.028;38.968;2023-10-08T04:47:01;16.10;;;4.00;;
49384;SDS011;36795;45.028;38.968;2023-10-08T04:49:52;19.87;;;4.78;;
49384;SDS011;36795;45.028;38.968;2023-10-08T04:52:37;21.27;;;4.57;;
49384;SDS011;36795;45.028;38.968;2023-10-08T04:55:30;18.73;;;4.40;;
49384;SDS011;36795;45.028;38.968;2023-10-08T04:58:16;23.40;;;5.43;;
49384;SDS011;36795;45.028;38.968;2023-10-08T05:01:12;19.85;;;4.93;;
49384;SDS011;36795;45.028;38.968;2023-10-08T05:04:04;20.15;;;4.82;;
49384;SDS011;36795;45.028;38.968;2023-10-08T05:06:50;20.37;;;5.68;;
49384;SDS011;36795;45.028;38.968;2023-10-08T05:09:45;19.80;;;5.07;;
49384;SDS011;36795;45.028;38.968;2023-10-08T05:12:37;18.35;;;4.50;;
49384;SDS011;36795;45.028;38.968;2023-10-08T05:15:31;22.35;;;4.97;;
49384;SDS011;36795;45.028;38.968;2023-10-08T05:18:43;19.75;;;4.45;;
49384;SDS011;36795;45.028;38.968;2023-10-08T05:21:48;18.12;;;4.37;;
49384;SDS011;36795;45.028;38.968;2023-10-08T05:24:47;21.37;;;4.68;;
49384;SDS011;36795;45.028;38.968;2023-10-08T05:27:53;19.87;;;4.95;;
49384;SDS011;36795;45.028;38.968;2023-10-08T05:30:42;22.08;;;4.53;;
49384;SDS011;36795;45.028;38.968;2023-10-08T05:33:40;20.95;;;4.82;;
49384;SDS011;36795;45.028;38.968;2023-10-08T05:36:48;17.92;;;4.22;;
49384;SDS011;36795;45.028;38.968;2023-10-08T05:39:49;26.20;;;5.12;;
49384;SDS011;36795;45.028;38.968;2023-10-08T05:42:41;22.20;;;4.78;;
49384;SDS011;36795;45.028;38.968;2023-10-08T05:45:31;22.25;;;4.70;;
49384;SDS011;36795;45.028;38.968;2023-10-08T05:48:18;25.12;;;5.57;;
49384;SDS011;36795;45.028;38.968;2023-10-08T05:51:12;24.08;;;4.97;;
49384;SDS011;36795;45.028;38.968;2023-10-08T05:54:08;30.10;;;6.10;;
49384;SDS011;36795;45.028;38.968;2023-10-08T05:57:09;26.75;;;5.47;;
49384;SDS011;36795;45.028;38.968;2023-10-08T05:59:55;26.83;;;4.80;;
49384;SDS011;36795;45.028;38.968;2023-10-08T06:02:42;42.60;;;8.80;;
49384;SDS011;36795;45.028;38.968;2023-10-08T06:05:31;24.83;;;5.72;;
49384;SDS011;36795;45.028;38.968;2023-10-08T06:08:29;26.87;;;4.97;;
49384;SDS011;36795;45.028;38.968;2023-10-08T06:11:37;21.92;;;5.10;;
49384;SDS011;36795;45.028;38.968;2023-10-08T06:14:30;26.75;;;4.68;;
49384;SDS011;36795;45.028;38.968;2023-10-08T06:17:38;24.85;;;4.90;;
49384;SDS011;36795;45.028;38.968;2023-10-08T06:20:41;29.67;;;5.32;;
49384;SDS011;36795;45.028;38.968;2023-10-08T06:23:30;28.98;;;5.80;;
49384;SDS011;36795;45.028;38.968;2023-10-08T06:26:20;28.40;;;5.95;;
49384;SDS011;36795;45.028;38.968;2023-10-08T06:29:10;24.70;;;5.15;;
49384;SDS011;36795;45.028;38.968;2023-10-08T06:32:13;27.13;;;4.87;;
49384;SDS011;36795;45.028;38.968;2023-10-08T06:34:59;31.52;;;5.03;;
49384;SDS011;36795;45.028;38.968;2023-10-08T06:37:47;33.40;;;5.43;;
49384;SDS011;36795;45.028;38.968;2023-10-08T06:40:35;37.17;;;6.03;;
49384;SDS011;36795;45.028;38.968;2023-10-08T06:43:22;25.85;;;5.65;;
49384;SDS011;36795;45.028;38.968;2023-10-08T06:46:10;31.83;;;4.60;;
49384;SDS011;36795;45.028;38.968;2023-10-08T06:48:58;21.65;;;4.43;;
49384;SDS011;36795;45.028;38.968;2023-10-08T06:51:44;32.25;;;5.85;;
49384;SDS011;36795;45.028;38.968;2023-10-08T06:54:30;36.03;;;7.57;;
49384;SDS011;36795;45.028;38.968;2023-10-08T06:57:16;33.95;;;6.12;;
49384;SDS011;36795;45.028;38.968;2023-10-08T07:00:05;35.83;;;5.78;;
49384;SDS011;36795;45.028;38.968;2023-10-08T07:03:18;29.00;;;5.70;;
49384;SDS011;36795;45.028;38.968;2023-10-08T07:06:05;34.35;;;6.00;;
49384;SDS011;36795;45.028;38.968;2023-10-08T07:09:23;30.48;;;5.68;;
49384;SDS011;36795;45.028;38.968;2023-10-08T07:12:12;23.02;;;5.35;;
49384;SDS011;36795;45.028;38.968;2023-10-08T07:14:59;36.65;;;7.72;;
49384;SDS011;36795;45.028;38.968;2023-10-08T07:17:46;42.55;;;9.68;;
49384;SDS011;36795;45.028;38.968;2023-10-08T07:20:37;34.38;;;5.65;;
49384;SDS011;36795;45.028;38.968;2023-10-08T07:23:24;36.28;;;5.97;;
49384;SDS011;36795;45.028;38.968;2023-10-08T07:26:10;45.40;;;6.05;;
49384;SDS011;36795;45.028;38.968;2023-10-08T07:28:56;96.43;;;9.75;;
49384;SDS011;36795;45.028;38.968;2023-10-08T07:31:42;44.70;;;6.40;;
49384;SDS011;36795;45.028;38.968;2023-10-08T07:34:38;24.17;;;5.10;;
49384;SDS011;36795;45.028;38.968;2023-10-08T07:37:24;45.85;;;9.65;;
49384;SDS011;36795;45.028;38.968;2023-10-08T07:40:11;27.30;;;6.57;;
49384;SDS011;36795;45.028;38.968;2023-10-08T07:42:58;25.33;;;7.22;;
49384;SDS011;36795;45.028;38.968;2023-10-08T07:45:53;32.05;;;6.68;;
49384;SDS011;36795;45.028;38.968;2023-10-08T07:48:39;26.83;;;6.60;;
49384;SDS011;36795;45.028;38.968;2023-10-08T07:51:27;29.33;;;8.63;;
49384;SDS011;36795;45.028;38.968;2023-10-08T07:54:14;30.95;;;6.45;;
49384;SDS011;36795;45.028;38.968;2023-10-08T07:57:01;31.00;;;9.57;;
49384;SDS011;36795;45.028;38.968;2023-10-08T07:59:54;23.30;;;6.80;;
49384;SDS011;36795;45.028;38.968;2023-10-08T08:02:39;27.80;;;6.07;;
49384;SDS011;36795;45.028;38.968;2023-10-08T08:05:27;23.35;;;5.03;;
49384;SDS011;36795;45.028;38.968;2023-10-08T08:08:13;33.88;;;5.00;;
49384;SDS011;36795;45.028;38.968;2023-10-08T08:11:03;26.02;;;5.20;;
49384;SDS011;36795;45.028;38.968;2023-10-08T08:13:56;40.55;;;6.12;;
49384;SDS011;36795;45.028;38.968;2023-10-08T08:16:44;29.05;;;5.10;;
49384;SDS011;36795;45.028;38.968;2023-10-08T08:19:33;28.70;;;5.12;;
49384;SDS011;36795;45.028;38.968;2023-10-08T08:22:20;29.35;;;4.53;;
49384;SDS011;36795;45.028;38.968;2023-10-08T08:25:06;33.45;;;4.82;;
49384;SDS011;36795;45.028;38.968;2023-10-08T08:28:12;26.98;;;5.00;;
49384;SDS011;36795;45.028;38.968;2023-10-08T08:31:06;24.15;;;5.47;;
49384;SDS011;36795;45.028;38.968;2023-10-08T08:34:02;25.88;;;7.90;;
49384;SDS011;36795;45.028;38.968;2023-10-08T08:36:53;33.03;;;7.85;;
49384;SDS011;36795;45.028;38.968;2023-10-08T08:39:39;31.15;;;6.80;;
49384;SDS011;36795;45.028;38.968;2023-10-08T08:42:26;33.05;;;7.50;;
49384;SDS011;36795;45.028;38.968;2023-10-08T08:45:18;27.95;;;6.75;;
49384;SDS011;36795;45.028;38.968;2023-10-08T08:48:05;34.33;;;6.07;;
49384;SDS011;36795;45.028;38.968;2023-10-08T08:50:52;31.67;;;9.85;;
49384;SDS011;36795;45.028;38.968;2023-10-08T08:53:39;31.33;;;9.25;;
49384;SDS011;36795;45.028;38.968;2023-10-08T08:56:29;31.17;;;8.70;;
49384;SDS011;36795;45.028;38.968;2023-10-08T08:59:15;24.70;;;8.55;;
49384;SDS011;36795;45.028;38.968;2023-10-08T09:02:02;30.10;;;7.03;;
49384;SDS011;36795;45.028;38.968;2023-10-08T09:04:52;24.95;;;7.18;;
49384;SDS011;36795;45.028;38.968;2023-10-08T09:08:12;27.48;;;6.57;;
49384;SDS011;36795;45.028;38.968;2023-10-08T09:10:51;28.70;;;8.90;;
49384;SDS011;36795;45.028;38.968;2023-10-08T09:13:37;33.08;;;9.43;;
49384;SDS011;36795;45.028;38.968;2023-10-08T09:16:23;27.45;;;6.72;;
49384;SDS011;36795;45.028;38.968;2023-10-08T09:19:09;24.33;;;5.65;;
49384;SDS011;36795;45.028;38.968;2023-10-08T09:22:07;27.33;;;6.05;;
49384;SDS011;36795;45.028;38.968;2023-10-08T09:24:54;23.65;;;6.05;;
49384;SDS011;36795;45.028;38.968;2023-10-08T09:27:41;29.30;;;6.80;;
49384;SDS011;36795;45.028;38.968;2023-10-08T09:30:31;35.25;;;9.55;;
49384;SDS011;36795;45.028;38.968;2023-10-08T09:33:22;35.20;;;14.75;;
49384;SDS011;36795;45.028;38.968;2023-10-08T09:36:09;30.00;;;11.57;;
49384;SDS011;36795;45.028;38.968;2023-10-08T09:41:55;25.73;;;5.43;;
49384;SDS011;36795;45.028;38.968;2023-10-08T09:44:42;26.58;;;4.97;;
49384;SDS011;36795;45.028;38.968;2023-10-08T09:47:29;23.95;;;5.65;;
49384;SDS011;36795;45.028;38.968;2023-10-08T09:50:16;28.90;;;5.12;;
49384;SDS011;36795;45.028;38.968;2023-10-08T09:53:11;27.27;;;5.18;;
49384;SDS011;36795;45.028;38.968;2023-10-08T09:56:12;24.70;;;5.12;;
49384;SDS011;36795;45.028;38.968;2023-10-08T09:59:03;29.85;;;6.62;;
49384;SDS011;36795;45.028;38.968;2023-10-08T10:01:49;27.80;;;8.57;;
49384;SDS011;36795;45.028;38.968;2023-10-08T10:04:42;25.62;;;6.72;;
49384;SDS011;36795;45.028;38.968;2023-10-08T10:07:29;27.02;;;6.30;;
49384;SDS011;36795;45.028;38.968;2023-10-08T10:10:25;25.50;;;8.40;;
49384;SDS011;36795;45.028;38.968;2023-10-08T10:13:12;32.85;;;7.55;;
49384;SDS011;36795;45.028;38.968;2023-10-08T10:15:59;28.10;;;6.35;;
49384;SDS011;36795;45.028;38.968;2023-10-08T10:18:45;27.48;;;6.32;;
49384;SDS011;36795;45.028;38.968;2023-10-08T10:21:34;28.45;;;9.07;;
49384;SDS011;36795;45.028;38.968;2023-10-08T10:24:32;29.27;;;10.02;;
49384;SDS011;36795;45.028;38.968;2023-10-08T10:27:22;32.15;;;7.32;;
49384;SDS011;36795;45.028;38.968;2023-10-08T10:30:09;28.05;;;8.52;;
49384;SDS011;36795;45.028;38.968;2023-10-08T10:33:00;30.83;;;7.90;;
49384;SDS011;36795;45.028;38.968;2023-10-08T10:35:53;26.65;;;8.85;;
49384;SDS011;36795;45.028;38.968;2023-10-08T10:38:40;27.02;;;8.32;;
49384;SDS011;36795;45.028;38.968;2023-10-08T10:41:27;27.75;;;7.25;;
49384;SDS011;36795;45.028;38.968;2023-10-08T10:44:16;26.67;;;6.25;;
49384;SDS011;36795;45.028;38.968;2023-10-08T10:47:03;24.87;;;6.85;;
49384;SDS011;36795;45.028;38.968;2023-10-08T10:50:01;28.50;;;7.30;;
49384;SDS011;36795;45.028;38.968;2023-10-08T10:52:50;24.30;;;7.90;;
49384;SDS011;36795;45.028;38.968;2023-10-08T10:55:37;28.80;;;8.98;;
49384;SDS011;36795;45.028;38.968;2023-10-08T10:58:24;24.12;;;8.57;;
49384;SDS011;36795;45.028;38.968;2023-10-08T11:01:13;45.30;;;10.13;;
49384;SDS011;36795;45.028;38.968;2023-10-08T11:04:09;40.63;;;12.20;;
49384;SDS011;36795;45.028;38.968;2023-10-08T11:07:01;33.55;;;9.13;;
49384;SDS011;36795;45.028;38.968;2023-10-08T11:09:51;41.67;;;11.02;;
49384;SDS011;36795;45.028;38.968;2023-10-08T11:12:41;30.45;;;8.00;;
49384;SDS011;36795;45.028;38.968;2023-10-08T11:15:31;26.92;;;6.93;;
49384;SDS011;36795;45.028;38.968;2023-10-08T11:18:26;36.03;;;8.45;;
49384;SDS011;36795;45.028;38.968;2023-10-08T11:21:15;28.12;;;8.50;;
49384;SDS011;36795;45.028;38.968;2023-10-08T11:24:07;28.35;;;8.95;;
49384;SDS011;36795;45.028;38.968;2023-10-08T11:26:57;35.60;;;10.43;;
49384;SDS011;36795;45.028;38.968;2023-10-08T11:30:02;30.17;;;11.10;;
49384;SDS011;36795;45.028;38.968;2023-10-08T11:32:56;36.58;;;13.95;;
49384;SDS011;36795;45.028;38.968;2023-10-08T11:35:58;40.35;;;17.80;;
49384;SDS011;36795;45.028;38.968;2023-10-08T11:38:51;33.65;;;12.73;;
49384;SDS011;36795;45.028;38.968;2023-10-08T11:41:39;31.08;;;11.82;;
49384;SDS011;36795;45.028;38.968;2023-10-08T11:44:34;35.38;;;13.32;;
49384;SDS011;36795;45.028;38.968;2023-10-08T11:47:21;39.40;;;12.95;;
49384;SDS011;36795;45.028;38.968;2023-10-08T11:50:07;32.92;;;11.90;;
49384;SDS011;36795;45.028;38.968;2023-10-08T11:53:02;27.65;;;6.87;;
49384;SDS011;36795;45.028;38.968;2023-10-08T11:55:48;22.42;;;6.53;;
49384;SDS011;36795;45.028;38.968;2023-10-08T11:58:34;25.05;;;8.23;;
49384;SDS011;36795;45.028;38.968;2023-10-08T12:01:23;28.27;;;10.32;;
49384;SDS011;36795;45.028;38.968;2023-10-08T12:04:10;29.75;;;10.43;;
49384;SDS011;36795;45.028;38.968;2023-10-08T12:06:58;27.85;;;9.77;;
49384;SDS011;36795;45.028;38.968;2023-10-08T12:09:47;33.05;;;11.02;;
49384;SDS011;36795;45.028;38.968;2023-10-08T12:12:33;30.45;;;9.60;;
49384;SDS011;36795;45.028;38.968;2023-10-08T12:15:21;26.25;;;9.63;;
49384;SDS011;36795;45.028;38.968;2023-10-08T12:18:11;26.85;;;6.55;;
49384;SDS011;36795;45.028;38.968;2023-10-08T12:21:00;45.03;;;6.25;;
49384;SDS011;36795;45.028;38.968;2023-10-08T12:23:47;28.50;;;7.28;;
49384;SDS011;36795;45.028;38.968;2023-10-08T12:26:36;27.60;;;7.85;;
49384;SDS011;36795;45.028;38.968;2023-10-08T12:29:21;28.00;;;8.18;;
49384;SDS011;36795;45.028;38.968;2023-10-08T12:32:10;28.70;;;10.65;;
49384;SDS011;36795;45.028;38.968;2023-10-08T12:35:01;32.90;;;11.57;;
49384;SDS011;36795;45.028;38.968;2023-10-08T12:37:48;27.95;;;8.48;;
49384;SDS011;36795;45.028;38.968;2023-10-08T12:40:33;28.17;;;8.05;;
49384;SDS011;36795;45.028;38.968;2023-10-08T12:43:41;26.45;;;8.00;;
49384;SDS011;36795;45.028;38.968;2023-10-08T12:46:30;27.77;;;7.62;;
49384;SDS011;36795;45.028;38.968;2023-10-08T12:49:19;25.95;;;7.32;;
49384;SDS011;36795;45.028;38.968;2023-10-08T12:52:06;26.98;;;9.00;;
49384;SDS011;36795;45.028;38.968;2023-10-08T12:54:54;23.52;;;7.45;;
49384;SDS011;36795;45.028;38.968;2023-10-08T12:57:40;25.55;;;8.70;;
49384;SDS011;36795;45.028;38.968;2023-10-08T13:00:27;24.73;;;7.78;;
49384;SDS011;36795;45.028;38.968;2023-10-08T13:03:13;29.70;;;8.88;;
49384;SDS011;36795;45.028;38.968;2023-10-08T13:06:09;25.67;;;7.55;;
49384;SDS011;36795;45.028;38.968;2023-10-08T13:09:06;28.35;;;7.87;;
49384;SDS011;36795;45.028;38.968;2023-10-08T13:11:57;26.67;;;8.80;;
49384;SDS011;36795;45.028;38.968;2023-10-08T13:14:44;27.75;;;10.70;;
49384;SDS011;36795;45.028;38.968;2023-10-08T13:17:30;28.52;;;7.57;;
49384;SDS011;36795;45.028;38.968;2023-10-08T13:20:17;25.27;;;7.75;;
49384;SDS011;36795;45.028;38.968;2023-10-08T13:23:03;25.90;;;6.53;;
49384;SDS011;36795;45.028;38.968;2023-10-08T13:25:53;28.87;;;8.70;;
49384;SDS011;36795;45.028;38.968;2023-10-08T13:28:40;23.42;;;8.55;;
49384;SDS011;36795;45.028;38.968;2023-10-08T13:31:26;27.35;;;8.30;;
49384;SDS011;36795;45.028;38.968;2023-10-08T13:34:13;28.17;;;10.07;;
49384;SDS011;36795;45.028;38.968;2023-10-08T13:37:00;29.23;;;12.68;;
49384;SDS011;36795;45.028;38.968;2023-10-08T13:39:46;29.42;;;11.12;;
49384;SDS011;36795;45.028;38.968;2023-10-08T13:42:32;29.23;;;11.80;;
49384;SDS011;36795;45.028;38.968;2023-10-08T13:45:19;27.77;;;13.05;;
49384;SDS011;36795;45.028;38.968;2023-10-08T13:48:11;33.50;;;14.50;;
49384;SDS011;36795;45.028;38.968;2023-10-08T13:51:00;29.98;;;13.68;;
49384;SDS011;36795;45.028;38.968;2023-10-08T13:53:49;30.10;;;11.00;;
49384;SDS011;36795;45.028;38.968;2023-10-08T13:56:44;26.58;;;8.88;;
49384;SDS011;36795;45.028;38.968;2023-10-08T13:59:33;24.98;;;9.73;;
49384;SDS011;36795;45.028;38.968;2023-10-08T14:02:19;30.80;;;10.50;;
49384;SDS011;36795;45.028;38.968;2023-10-08T14:05:06;26.80;;;9.70;;
49384;SDS011;36795;45.028;38.968;2023-10-08T14:07:53;28.85;;;10.38;;
49384;SDS011;36795;45.028;38.968;2023-10-08T14:10:40;27.83;;;11.77;;
49384;SDS011;36795;45.028;38.968;2023-10-08T14:13:31;26.85;;;11.77;;
49384;SDS011;36795;45.028;38.968;2023-10-08T14:16:21;29.25;;;12.90;;
49384;SDS011;36795;45.028;38.968;2023-10-08T14:19:13;39.33;;;13.55;;
49384;SDS011;36795;45.028;38.968;2023-10-08T14:21:59;31.70;;;13.15;;
49384;SDS011;36795;45.028;38.968;2023-10-08T14:24:48;28.95;;;11.88;;
49384;SDS011;36795;45.028;38.968;2023-10-08T14:27:44;26.70;;;11.93;;
49384;SDS011;36795;45.028;38.968;2023-10-08T14:30:37;28.47;;;11.27;;
49384;SDS011;36795;45.028;38.968;2023-10-08T14:33:27;27.02;;;13.05;;
49384;SDS011;36795;45.028;38.968;2023-10-08T14:36:16;34.30;;;19.45;;
49384;SDS011;36795;45.028;38.968;2023-10-08T14:39:21;39.80;;;20.60;;
49384;SDS011;36795;45.028;38.968;2023-10-08T14:42:25;37.58;;;19.60;;
49384;SDS011;36795;45.028;38.968;2023-10-08T14:45:30;34.70;;;18.02;;
49384;SDS011;36795;45.028;38.968;2023-10-08T14:48:18;42.95;;;21.98;;
49384;SDS011;36795;45.028;38.968;2023-10-08T14:51:05;35.53;;;18.87;;
49384;SDS011;36795;45.028;38.968;2023-10-08T14:53:51;70.25;;;50.17;;
49384;SDS011;36795;45.028;38.968;2023-10-08T14:56:37;39.38;;;17.17;;
49384;SDS011;36795;45.028;38.968;2023-10-08T14:59:24;28.17;;;11.05;;
49384;SDS011;36795;45.028;38.968;2023-10-08T15:02:13;25.25;;;9.32;;
49384;SDS011;36795;45.028;38.968;2023-10-08T15:04:59;31.27;;;13.35;;
49384;SDS011;36795;45.028;38.968;2023-10-08T15:07:46;28.65;;;13.30;;
49384;SDS011;36795;45.028;38.968;2023-10-08T15:10:34;40.08;;;22.25;;
49384;SDS011;36795;45.028;38.968;2023-10-08T15:13:20;36.65;;;23.20;;
49384;SDS011;36795;45.028;38.968;2023-10-08T15:16:06;42.28;;;26.52;;
49384;SDS011;36795;45.028;38.968;2023-10-08T15:18:52;41.72;;;24.60;;
49384;SDS011;36795;45.028;38.968;2023-10-08T15:21:39;39.80;;;24.08;;
49384;SDS011;36795;45.028;38.968;2023-10-08T15:24:26;35.00;;;17.90;;
49384;SDS011;36795;45.028;38.968;2023-10-08T15:27:12;36.53;;;18.25;;
49384;SDS011;36795;45.028;38.968;2023-10-08T15:29:58;34.15;;;18.37;;
49384;SDS011;36795;45.028;38.968;2023-10-08T15:32:45;29.77;;;12.27;;
49384;SDS011;36795;45.028;38.968;2023-10-08T15:35:32;26.75;;;10.45;;
49384;SDS011;36795;45.028;38.968;2023-10-08T15:38:18;28.25;;;13.00;;
49384;SDS011;36795;45.028;38.968;2023-10-08T15:41:05;30.92;;;14.23;;
49384;SDS011;36795;45.028;38.968;2023-10-08T15:43:51;26.12;;;11.68;;
49384;SDS011;36795;45.028;38.968;2023-10-08T15:46:39;27.95;;;10.88;;
49384;SDS011;36795;45.028;38.968;2023-10-08T15:49:25;28.12;;;12.52;;
49384;SDS011;36795;45.028;38.968;2023-10-08T15:52:11;32.00;;;11.77;;
49384;SDS011;36795;45.028;38.968;2023-10-08T15:54:59;25.37;;;10.30;;
49384;SDS011;36795;45.028;38.968;2023-10-08T15:57:45;26.87;;;9.18;;
49384;SDS011;36795;45.028;38.968;2023-10-08T16:00:31;24.55;;;8.93;;
49384;SDS011;36795;45.028;38.968;2023-10-08T16:03:18;25.77;;;8.38;;
49384;SDS011;36795;45.028;38.968;2023-10-08T16:06:04;25.00;;;8.73;;
49384;SDS011;36795;45.028;38.968;2023-10-08T16:08:51;25.95;;;8.75;;
49384;SDS011;36795;45.028;38.968;2023-10-08T16:11:37;27.48;;;9.35;;
49384;SDS011;36795;45.028;38.968;2023-10-08T16:14:23;28.38;;;9.13;;
49384;SDS011;36795;45.028;38.968;2023-10-08T16:17:10;25.52;;;8.40;;
49384;SDS011;36795;45.028;38.968;2023-10-08T16:19:58;27.02;;;9.05;;
49384;SDS011;36795;45.028;38.968;2023-10-08T16:22:46;23.80;;;7.40;;
49384;SDS011;36795;45.028;38.968;2023-10-08T16:25:35;24.92;;;7.75;;
49384;SDS011;36795;45.028;38.968;2023-10-08T16:28:21;29.23;;;7.62;;
49384;SDS011;36795;45.028;38.968;2023-10-08T16:31:09;26.80;;;9.07;;
49384;SDS011;36795;45.028;38.968;2023-10-08T16:33:55;24.10;;;8.07;;
49384;SDS011;36795;45.028;38.968;2023-10-08T16:36:41;29.02;;;9.05;;